Time,TemperatureF,DewpointF,PressureIn,WindDirection,WindDirectionDegrees,WindSpeedMPH,WindSpeedGustMPH,Humidity,HourlyPrecipIn,Conditions,Clouds,dailyrainin,SoftwareType,DateUTC
2013-01-27 00:00:00,0.3,-4.4,30.31,NW,314,0.0,0.0,80,0.00,,,0.00,Wunderground v.1.15,2013-01-27 05:00:00,
2013-01-27 00:05:00,0.1,-4.6,30.31,NW,314,0.0,0.0,80,0.00,,,0.00,Wunderground v.1.15,2013-01-27 05:05:00,
2013-01-27 00:10:00,0.1,-4.6,30.31,NW,314,0.0,0.0,80,0.00,,,0.00,Wunderground v.1.15,2013-01-27 05:10:00,
2013-01-27 00:15:00,0.0,-4.7,30.31,NW,314,0.0,0.0,80,0.00,,,0.00,Wunderground v.1.15,2013-01-27 05:15:00,
2013-01-27 00:20:00,0.0,-4.4,30.31,NW,314,0.0,1.0,81,0.00,,,0.00,Wunderground v.1.15,2013-01-27 05:20:00,
2013-01-27 00:25:00,0.0,-4.4,30.31,NW,314,1.0,3.0,81,0.00,,,0.00,Wunderground v.1.15,2013-01-27 05:25:00,
2013-01-27 00:30:00,0.1,-4.3,30.31,NW,314,1.0,1.0,81,0.00,,,0.00,Wunderground v.1.15,2013-01-27 05:30:00,
2013-01-27 00:40:00,0.0,-4.7,30.31,NW,314,0.0,0.0,80,0.00,,,0.00,Wunderground v.1.15,2013-01-27 05:40:00,
2013-01-27 00:45:00,0.0,-4.7,30.31,NW,314,0.0,0.0,80,0.00,,,0.00,Wunderground v.1.15,2013-01-27 05:45:00,
2013-01-27 00:50:00,-0.2,-4.9,30.32,NW,314,0.0,0.0,80,0.00,,,0.00,Wunderground v.1.15,2013-01-27 05:50:00,
2013-01-27 01:00:00,-0.6,-5.3,30.32,NW,314,0.0,1.0,80,0.00,,,0.00,Wunderground v.1.15,2013-01-27 06:00:00,
2013-01-27 01:05:00,-0.8,-5.5,30.32,NW,314,0.0,1.0,80,0.00,,,0.00,Wunderground v.1.15,2013-01-27 06:05:00,
2013-01-27 01:10:00,-0.8,-5.2,30.32,NW,314,0.0,0.0,81,0.00,,,0.00,Wunderground v.1.15,2013-01-27 06:10:00,
2013-01-27 01:20:00,-0.6,-5.0,30.32,NW,313,2.0,2.0,81,0.00,,,0.00,Wunderground v.1.15,2013-01-27 06:20:00,
2013-01-27 01:25:00,-0.4,-4.8,30.33,NW,313,1.0,2.0,81,0.00,,,0.00,Wunderground v.1.15,2013-01-27 06:25:00,
2013-01-27 01:30:00,-0.6,-5.0,30.33,NW,313,0.0,0.0,81,0.00,,,0.00,Wunderground v.1.15,2013-01-27 06:30:00,
2013-01-27 01:40:00,-0.6,-5.3,30.33,NW,313,0.0,0.0,80,0.00,,,0.00,Wunderground v.1.15,2013-01-27 06:40:00,
2013-01-27 01:45:00,-0.8,-5.5,30.34,NW,313,0.0,0.0,80,0.00,,,0.00,Wunderground v.1.15,2013-01-27 06:45:00,
2013-01-27 01:50:00,-0.8,-5.5,30.34,NW,313,0.0,0.0,80,0.00,,,0.00,Wunderground v.1.15,2013-01-27 06:50:00,
2013-01-27 01:55:00,-1.0,-5.7,30.34,NW,313,0.0,0.0,80,0.00,,,0.00,Wunderground v.1.15,2013-01-27 06:55:00,
2013-01-27 02:05:00,-1.0,-5.7,30.34,NW,313,0.0,0.0,80,0.00,,,0.00,Wunderground v.1.15,2013-01-27 07:05:00,
2013-01-27 02:15:00,-1.4,-6.1,30.35,NW,313,0.0,0.0,80,0.00,,,0.00,Wunderground v.1.15,2013-01-27 07:15:00,
2013-01-27 02:20:00,-1.4,-6.1,30.34,NW,313,0.0,0.0,80,0.00,,,0.00,Wunderground v.1.15,2013-01-27 07:20:00,
2013-01-27 02:25:00,-1.6,-6.3,30.35,NW,313,0.0,0.0,80,0.00,,,0.00,Wunderground v.1.15,2013-01-27 07:25:00,
2013-01-27 02:30:00,-1.6,-6.0,30.35,NW,313,0.0,0.0,81,0.00,,,0.00,Wunderground v.1.15,2013-01-27 07:30:00,
2013-01-27 02:35:00,-1.4,-5.8,30.35,NW,313,0.0,0.0,81,0.00,,,0.00,Wunderground v.1.15,2013-01-27 07:35:00,
2013-01-27 02:45:00,-1.4,-5.8,30.35,NW,313,0.0,1.0,81,0.00,,,0.00,Wunderground v.1.15,2013-01-27 07:45:00,
2013-01-27 02:50:00,-1.4,-6.1,30.35,NW,313,0.0,0.0,80,0.00,,,0.00,Wunderground v.1.15,2013-01-27 07:50:00,
2013-01-27 02:55:00,-1.6,-6.3,30.35,NW,313,0.0,0.0,80,0.00,,,0.00,Wunderground v.1.15,2013-01-27 07:55:00,
2013-01-27 03:05:00,-1.8,-6.5,30.35,NW,313,0.0,0.0,80,0.00,,,0.00,Wunderground v.1.15,2013-01-27 08:05:00,
2013-01-27 03:10:00,-2.0,-6.7,30.35,NW,313,0.0,0.0,80,0.00,,,0.00,Wunderground v.1.15,2013-01-27 08:10:00,
2013-01-27 03:15:00,-2.0,-6.7,30.35,NW,313,0.0,0.0,80,0.00,,,0.00,Wunderground v.1.15,2013-01-27 08:15:00,
2013-01-27 03:25:00,-2.0,-6.7,30.36,NW,313,0.0,0.0,80,0.00,,,0.00,Wunderground v.1.15,2013-01-27 08:25:00,
2013-01-27 03:30:00,-2.2,-6.9,30.36,NW,313,0.0,0.0,80,0.00,,,0.00,Wunderground v.1.15,2013-01-27 08:30:00,
2013-01-27 03:35:00,-2.2,-6.9,30.36,NW,313,0.0,0.0,80,0.00,,,0.00,Wunderground v.1.15,2013-01-27 08:35:00,
2013-01-27 03:45:00,-2.4,-7.1,30.36,NW,313,0.0,0.0,80,0.00,,,0.00,Wunderground v.1.15,2013-01-27 08:45:00,
2013-01-27 03:50:00,-2.6,-7.5,30.36,NW,313,0.0,0.0,79,0.00,,,0.00,Wunderground v.1.15,2013-01-27 08:50:00,
2013-01-27 03:55:00,-2.8,-7.7,30.36,NW,313,0.0,0.0,79,0.00,,,0.00,Wunderground v.1.15,2013-01-27 08:55:00,
2013-01-27 04:05:00,-2.8,-7.4,30.36,NW,313,0.0,0.0,80,0.00,,,0.00,Wunderground v.1.15,2013-01-27 09:05:00,
2013-01-27 04:10:00,-3.1,-7.7,30.36,NW,313,0.0,0.0,80,0.00,,,0.00,Wunderground v.1.15,2013-01-27 09:10:00,
2013-01-27 04:20:00,-3.1,-7.7,30.36,NW,313,0.0,0.0,80,0.00,,,0.00,Wunderground v.1.15,2013-01-27 09:20:00,
2013-01-27 04:25:00,-3.1,-7.7,30.36,NW,313,0.0,0.0,80,0.00,,,0.00,Wunderground v.1.15,2013-01-27 09:25:00,
2013-01-27 04:30:00,-3.1,-7.7,30.36,NW,313,0.0,0.0,80,0.00,,,0.00,Wunderground v.1.15,2013-01-27 09:30:00,
2013-01-27 04:40:00,-3.1,-7.7,30.36,NW,313,0.0,1.0,80,0.00,,,0.00,Wunderground v.1.15,2013-01-27 09:40:00,
2013-01-27 04:45:00,-3.1,-7.7,30.37,NW,313,0.0,1.0,80,0.00,,,0.00,Wunderground v.1.15,2013-01-27 09:45:00,
2013-01-27 04:50:00,-2.8,-7.4,30.37,NW,313,0.0,0.0,80,0.00,,,0.00,Wunderground v.1.15,2013-01-27 09:50:00,
2013-01-27 04:55:00,-2.8,-7.4,30.37,NW,313,0.0,0.0,80,0.00,,,0.00,Wunderground v.1.15,2013-01-27 09:55:00,
2013-01-27 05:05:00,-2.6,-7.2,30.38,NW,313,0.0,0.0,80,0.00,,,0.00,Wunderground v.1.15,2013-01-27 10:05:00,
2013-01-27 05:10:00,-2.6,-7.2,30.38,NW,313,0.0,0.0,80,0.00,,,0.00,Wunderground v.1.15,2013-01-27 10:10:00,
2013-01-27 05:20:00,-2.8,-7.7,30.38,NW,313,0.0,0.0,79,0.00,,,0.00,Wunderground v.1.15,2013-01-27 10:20:00,
2013-01-27 05:25:00,-3.1,-8.0,30.38,NW,313,0.0,0.0,79,0.00,,,0.00,Wunderground v.1.15,2013-01-27 10:25:00,
2013-01-27 05:30:00,-3.1,-8.0,30.38,NW,313,0.0,0.0,79,0.00,,,0.00,Wunderground v.1.15,2013-01-27 10:30:00,
2013-01-27 05:35:00,-3.3,-8.2,30.38,NW,313,0.0,0.0,79,0.00,,,0.00,Wunderground v.1.15,2013-01-27 10:35:00,
2013-01-27 05:45:00,-3.5,-8.4,30.39,NW,313,0.0,0.0,79,0.00,,,0.00,Wunderground v.1.15,2013-01-27 10:45:00,
2013-01-27 05:50:00,-3.5,-8.4,30.40,NW,313,0.0,0.0,79,0.00,,,0.00,Wunderground v.1.15,2013-01-27 10:50:00,
2013-01-27 05:55:00,-3.5,-8.4,30.40,NW,313,0.0,0.0,79,0.00,,,0.00,Wunderground v.1.15,2013-01-27 10:55:00,
2013-01-27 06:05:00,-3.7,-8.6,30.40,NW,313,0.0,0.0,79,0.00,,,0.00,Wunderground v.1.15,2013-01-27 11:05:00,
2013-01-27 06:10:00,-3.9,-8.8,30.40,NW,313,0.0,0.0,79,0.00,,,0.00,Wunderground v.1.15,2013-01-27 11:10:00,
2013-01-27 06:15:00,-3.9,-8.8,30.40,NW,313,0.0,0.0,79,0.00,,,0.00,Wunderground v.1.15,2013-01-27 11:15:00,
2013-01-27 06:25:00,-3.9,-8.8,30.41,NW,313,0.0,0.0,79,0.00,,,0.00,Wunderground v.1.15,2013-01-27 11:25:00,
2013-01-27 06:30:00,-4.1,-9.0,30.41,NW,313,0.0,0.0,79,0.00,,,0.00,Wunderground v.1.15,2013-01-27 11:30:00,
2013-01-27 06:35:00,-4.1,-9.0,30.41,NW,313,0.0,0.0,79,0.00,,,0.00,Wunderground v.1.15,2013-01-27 11:35:00,
2013-01-27 06:45:00,-4.3,-9.2,30.41,NW,313,0.0,0.0,79,0.00,,,0.00,Wunderground v.1.15,2013-01-27 11:45:00,
2013-01-27 06:50:00,-4.3,-9.2,30.41,NW,313,0.0,0.0,79,0.00,,,0.00,Wunderground v.1.15,2013-01-27 11:50:00,
2013-01-27 06:55:00,-4.3,-9.2,30.42,NW,313,0.0,0.0,79,0.00,,,0.00,Wunderground v.1.15,2013-01-27 11:55:00,
2013-01-27 07:00:00,-4.3,-9.2,30.42,NW,313,0.0,0.0,79,0.00,,,0.00,Wunderground v.1.15,2013-01-27 12:00:00,
2013-01-27 07:10:00,-4.6,-9.5,30.42,NW,313,0.0,0.0,79,0.00,,,0.00,Wunderground v.1.15,2013-01-27 12:10:00,
2013-01-27 07:15:00,-4.6,-9.5,30.43,NW,313,0.0,0.0,79,0.00,,,0.00,Wunderground v.1.15,2013-01-27 12:15:00,
2013-01-27 07:25:00,-4.6,-9.5,30.43,NW,313,0.0,0.0,79,0.00,,,0.00,Wunderground v.1.15,2013-01-27 12:25:00,
2013-01-27 07:30:00,-4.6,-9.5,30.44,NW,313,0.0,0.0,79,0.00,,,0.00,Wunderground v.1.15,2013-01-27 12:30:00,
2013-01-27 07:35:00,-4.6,-9.5,30.44,NW,313,0.0,0.0,79,0.00,,,0.00,Wunderground v.1.15,2013-01-27 12:35:00,
2013-01-27 07:40:00,-4.6,-9.5,30.44,NW,313,0.0,0.0,79,0.00,,,0.00,Wunderground v.1.15,2013-01-27 12:40:00,
2013-01-27 07:50:00,-4.3,-8.9,30.45,NW,313,0.0,0.0,80,0.00,,,0.00,Wunderground v.1.15,2013-01-27 12:50:00,
2013-01-27 07:55:00,-4.1,-8.7,30.45,NW,313,0.0,0.0,80,0.00,,,0.00,Wunderground v.1.15,2013-01-27 12:55:00,
2013-01-27 08:00:00,-3.7,-8.1,30.45,NW,313,0.0,0.0,81,0.00,,,0.00,Wunderground v.1.15,2013-01-27 13:00:00,
2013-01-27 08:10:00,-3.1,-7.5,30.45,NW,313,0.0,0.0,81,0.00,,,0.00,Wunderground v.1.15,2013-01-27 13:10:00,
2013-01-27 08:15:00,-2.4,-6.5,30.45,NW,313,0.0,0.0,82,0.00,,,0.00,Wunderground v.1.15,2013-01-27 13:15:00,
2013-01-27 08:20:00,-1.6,-5.5,30.45,NW,313,0.0,0.0,83,0.00,,,0.00,Wunderground v.1.15,2013-01-27 13:20:00,
2013-01-27 08:30:00,-0.4,-4.3,30.46,NW,313,0.0,0.0,83,0.00,,,0.00,Wunderground v.1.15,2013-01-27 13:30:00,
2013-01-27 08:35:00,0.0,-3.9,30.46,NW,313,0.0,0.0,83,0.00,,,0.00,Wunderground v.1.15,2013-01-27 13:35:00,
2013-01-27 08:40:00,0.5,-3.4,30.46,NW,313,0.0,0.0,83,0.00,,,0.00,Wunderground v.1.15,2013-01-27 13:40:00,
2013-01-27 08:45:00,1.1,-2.6,30.46,NW,313,0.0,0.0,84,0.00,,,0.00,Wunderground v.1.15,2013-01-27 13:45:00,
2013-01-27 08:55:00,2.8,-0.7,30.46,NW,313,0.0,2.0,85,0.00,,,0.00,Wunderground v.1.15,2013-01-27 13:55:00,
2013-01-27 09:00:00,3.5,0.0,30.46,NW,312,0.0,0.0,85,0.00,,,0.00,Wunderground v.1.15,2013-01-27 14:00:00,
2013-01-27 09:10:00,7.0,3.2,30.47,North,9,2.0,2.0,84,0.00,,,0.00,Wunderground v.1.15,2013-01-27 14:10:00,
2013-01-27 09:15:00,9.0,4.1,30.47,NNW,331,2.0,3.0,80,0.00,,,0.00,Wunderground v.1.15,2013-01-27 14:15:00,
2013-01-27 09:20:00,10.0,4.2,30.47,NW,304,2.0,2.0,77,0.00,,,0.00,Wunderground v.1.15,2013-01-27 14:20:00,
2013-01-27 09:25:00,11.6,4.0,30.47,NNW,330,1.0,2.0,71,0.00,,,0.00,Wunderground v.1.15,2013-01-27 14:25:00,
2013-01-27 09:35:00,13.8,3.2,30.47,NNE,28,3.0,7.0,62,0.00,,,0.00,Wunderground v.1.15,2013-01-27 14:35:00,
2013-01-27 09:40:00,14.4,3.7,30.47,NNW,328,3.0,3.0,62,0.00,,,0.00,Wunderground v.1.15,2013-01-27 14:40:00,
2013-01-27 09:45:00,14.6,3.9,30.47,North,355,2.0,3.0,62,0.00,,,0.00,Wunderground v.1.15,2013-01-27 14:45:00,
2013-01-27 09:50:00,14.9,2.4,30.47,North,355,1.0,1.0,57,0.00,,,0.00,Wunderground v.1.15,2013-01-27 14:50:00,
2013-01-27 10:00:00,15.6,2.3,30.47,South,174,1.0,1.0,55,0.00,,,0.00,Wunderground v.1.15,2013-01-27 15:00:00,
2013-01-27 10:10:00,16.4,0.5,30.47,North,355,2.0,5.0,49,0.00,,,0.00,Wunderground v.1.15,2013-01-27 15:10:00,
2013-01-27 10:15:00,16.7,1.3,30.48,NW,309,3.0,5.0,50,0.00,,,0.00,Wunderground v.1.15,2013-01-27 15:15:00,
2013-01-27 10:20:00,16.9,1.0,30.48,NNE,19,3.0,3.0,49,0.00,,,0.00,Wunderground v.1.15,2013-01-27 15:20:00,
2013-01-27 10:30:00,17.5,1.6,30.49,NW,317,3.0,6.0,49,0.00,,,0.00,Wunderground v.1.15,2013-01-27 15:30:00,
2013-01-27 10:35:00,17.8,0.9,30.49,North,350,3.0,6.0,47,0.00,,,0.00,Wunderground v.1.15,2013-01-27 15:35:00,
2013-01-27 10:40:00,18.1,0.8,30.48,NW,323,3.0,4.0,46,0.00,,,0.00,Wunderground v.1.15,2013-01-27 15:40:00,
2013-01-27 10:45:00,18.4,1.0,30.49,NW,322,3.0,5.0,46,0.00,,,0.00,Wunderground v.1.15,2013-01-27 15:45:00,
2013-01-27 10:55:00,18.9,0.5,30.49,WNW,298,4.0,4.0,44,0.00,,,0.00,Wunderground v.1.15,2013-01-27 15:55:00,
2013-01-27 11:00:00,19.2,2.2,30.48,NE,44,2.0,3.0,47,0.00,,,0.00,Wunderground v.1.15,2013-01-27 16:00:00,
2013-01-27 11:05:00,19.5,0.6,30.48,NNE,19,3.0,12.0,43,0.00,,,0.00,Wunderground v.1.15,2013-01-27 16:05:00,
2013-01-27 11:15:00,20.0,0.6,30.48,NW,319,3.0,5.0,42,0.00,,,0.00,Wunderground v.1.15,2013-01-27 16:15:00,
2013-01-27 11:20:00,20.3,1.8,30.48,NNE,30,2.0,2.0,44,0.00,,,0.00,Wunderground v.1.15,2013-01-27 16:20:00,
2013-01-27 11:25:00,20.5,1.5,30.48,North,355,2.0,2.0,43,0.00,,,0.00,Wunderground v.1.15,2013-01-27 16:25:00,
2013-01-27 11:35:00,20.8,-0.3,30.48,NE,53,1.0,3.0,39,0.00,,,0.00,Wunderground v.1.15,2013-01-27 16:35:00,
2013-01-27 11:40:00,21.4,-0.3,30.48,NNE,29,2.0,2.0,38,0.00,,,0.00,Wunderground v.1.15,2013-01-27 16:40:00,
2013-01-27 11:45:00,21.6,0.4,30.48,South,190,2.0,3.0,39,0.00,,,0.00,Wunderground v.1.15,2013-01-27 16:45:00,
2013-01-27 11:50:00,21.8,-0.5,30.47,North,349,3.0,3.0,37,0.00,,,0.00,Wunderground v.1.15,2013-01-27 16:50:00,
2013-01-27 11:55:00,21.8,-0.5,30.47,SE,130,2.0,3.0,37,0.00,,,0.00,Wunderground v.1.15,2013-01-27 16:55:00,
2013-01-27 12:05:00,22.1,1.9,30.46,SSW,198,1.0,2.0,41,0.00,,,0.00,Wunderground v.1.15,2013-01-27 17:05:00,
2013-01-27 12:10:00,22.4,-0.6,30.46,South,190,2.0,2.0,36,0.00,,,0.00,Wunderground v.1.15,2013-01-27 17:10:00,
2013-01-27 12:20:00,22.9,6.1,30.46,South,178,1.0,4.0,48,0.00,,,0.00,Wunderground v.1.15,2013-01-27 17:20:00,
2013-01-27 12:25:00,23.0,1.7,30.46,NW,321,2.0,4.0,39,0.00,,,0.00,Wunderground v.1.15,2013-01-27 17:25:00,
2013-01-27 12:30:00,23.0,-0.6,30.47,SW,218,2.0,2.0,35,0.00,,,0.00,Wunderground v.1.15,2013-01-27 17:30:00,
2013-01-27 12:35:00,23.2,1.9,30.47,WNW,290,2.0,2.0,39,0.00,,,0.00,Wunderground v.1.15,2013-01-27 17:35:00,
2013-01-27 12:40:00,23.5,-0.2,30.47,SSW,205,2.0,3.0,35,0.00,,,0.00,Wunderground v.1.15,2013-01-27 17:40:00,
2013-01-27 12:50:00,23.6,2.2,30.47,NW,325,3.0,3.0,39,0.00,,,0.00,Wunderground v.1.15,2013-01-27 17:50:00,
2013-01-27 12:55:00,23.8,1.3,30.46,SE,132,2.0,3.0,37,0.00,,,0.00,Wunderground v.1.15,2013-01-27 17:55:00,
2013-01-27 13:00:00,23.9,2.5,30.46,South,177,1.0,3.0,39,0.00,,,0.00,Wunderground v.1.15,2013-01-27 18:00:00,
2013-01-27 13:10:00,24.2,0.4,30.46,NW,318,2.0,3.0,35,0.00,,,0.00,Wunderground v.1.15,2013-01-27 18:10:00,
2013-01-27 13:15:00,24.2,0.4,30.46,South,180,2.0,3.0,35,0.00,,,0.00,Wunderground v.1.15,2013-01-27 18:15:00,
2013-01-27 13:20:00,24.2,-0.8,30.46,South,182,2.0,2.0,33,0.00,,,0.00,Wunderground v.1.15,2013-01-27 18:20:00,
2013-01-27 13:30:00,24.5,0.1,30.45,North,360,2.0,7.0,34,0.00,,,0.00,Wunderground v.1.15,2013-01-27 18:30:00,
2013-01-27 13:35:00,24.5,-1.9,30.45,South,177,2.0,7.0,31,0.00,,,0.00,Wunderground v.1.15,2013-01-27 18:35:00,
2013-01-27 13:40:00,24.7,-1.0,30.45,SSW,196,2.0,2.0,32,0.00,,,0.00,Wunderground v.1.15,2013-01-27 18:40:00,
2013-01-27 13:45:00,24.8,-0.9,30.45,NW,308,2.0,2.0,32,0.00,,,0.00,Wunderground v.1.15,2013-01-27 18:45:00,
2013-01-27 13:55:00,25.0,2.3,30.45,NW,317,2.0,4.0,37,0.00,,,0.00,Wunderground v.1.15,2013-01-27 18:55:00,
2013-01-27 14:00:00,25.0,0.5,30.46,NW,315,2.0,2.0,34,0.00,,,0.00,Wunderground v.1.15,2013-01-27 19:00:00,
2013-01-27 14:05:00,24.8,-1.6,30.46,NNW,344,2.0,5.0,31,0.00,,,0.00,Wunderground v.1.15,2013-01-27 19:05:00,
2013-01-27 14:10:00,24.8,-2.3,30.46,South,186,2.0,3.0,30,0.00,,,0.00,Wunderground v.1.15,2013-01-27 19:10:00,
2013-01-27 14:20:00,25.1,0.6,30.46,WNW,293,2.0,2.0,34,0.00,,,0.00,Wunderground v.1.15,2013-01-27 19:20:00,
2013-01-27 14:25:00,25.1,1.8,30.46,WNW,290,2.0,2.0,36,0.00,,,0.00,Wunderground v.1.15,2013-01-27 19:25:00,
2013-01-27 14:35:00,25.3,2.0,30.45,SSW,207,2.0,4.0,36,0.00,,,0.00,Wunderground v.1.15,2013-01-27 19:35:00,
2013-01-27 14:40:00,25.3,-1.9,30.46,NW,313,2.0,2.0,30,0.00,,,0.00,Wunderground v.1.15,2013-01-27 19:40:00,
2013-01-27 14:45:00,25.4,1.5,30.45,South,186,2.0,2.0,35,0.00,,,0.00,Wunderground v.1.15,2013-01-27 19:45:00,
2013-01-27 14:50:00,25.6,-0.2,30.45,NNW,346,2.0,2.0,32,0.00,,,0.00,Wunderground v.1.15,2013-01-27 19:50:00,
2013-01-27 15:00:00,25.4,-0.4,30.45,SSW,207,1.0,1.0,32,0.00,,,0.00,Wunderground v.1.15,2013-01-27 20:00:00,
2013-01-27 15:05:00,25.4,-1.1,30.45,NW,323,1.0,1.0,31,0.00,,,0.00,Wunderground v.1.15,2013-01-27 20:05:00,
2013-01-27 15:10:00,25.4,0.2,30.46,NNW,339,1.0,1.0,33,0.00,,,0.00,Wunderground v.1.15,2013-01-27 20:10:00,
2013-01-27 15:20:00,25.3,-0.5,30.45,WNW,294,1.0,1.0,32,0.00,,,0.00,Wunderground v.1.15,2013-01-27 20:20:00,
2013-01-27 15:25:00,25.3,-0.5,30.45,NW,322,1.0,1.0,32,0.00,,,0.00,Wunderground v.1.15,2013-01-27 20:25:00,
2013-01-27 15:30:00,25.1,-0.7,30.45,NW,308,1.0,1.0,32,0.00,,,0.00,Wunderground v.1.15,2013-01-27 20:30:00,
2013-01-27 15:35:00,25.1,-0.7,30.45,NW,306,0.0,1.0,32,0.00,,,0.00,Wunderground v.1.15,2013-01-27 20:35:00,
2013-01-27 15:45:00,24.8,1.0,30.46,South,175,1.0,2.0,35,0.00,,,0.00,Wunderground v.1.15,2013-01-27 20:45:00,
2013-01-27 15:50:00,24.7,3.8,30.46,SSW,192,1.0,1.0,40,0.00,,,0.00,Wunderground v.1.15,2013-01-27 20:50:00,
2013-01-27 15:55:00,24.7,2.7,30.46,South,189,1.0,1.0,38,0.00,,,0.00,Wunderground v.1.15,2013-01-27 20:55:00,
2013-01-27 16:00:00,24.5,3.0,30.46,South,190,1.0,1.0,39,0.00,,,0.00,Wunderground v.1.15,2013-01-27 21:00:00,
2013-01-27 16:10:00,24.4,1.2,30.47,South,190,1.0,1.0,36,0.00,,,0.00,Wunderground v.1.15,2013-01-27 21:10:00,
2013-01-27 16:15:00,24.2,5.9,30.47,NW,313,1.0,1.0,45,0.00,,,0.00,Wunderground v.1.15,2013-01-27 21:15:00,
2013-01-27 16:25:00,24.1,3.2,30.48,SW,221,1.0,3.0,40,0.00,,,0.00,Wunderground v.1.15,2013-01-27 21:25:00,
2013-01-27 16:30:00,23.9,2.5,30.48,North,360,1.0,1.0,39,0.00,,,0.00,Wunderground v.1.15,2013-01-27 21:30:00,
2013-01-27 16:35:00,23.8,2.4,30.48,North,360,0.0,1.0,39,0.00,,,0.00,Wunderground v.1.15,2013-01-27 21:35:00,
2013-01-27 16:40:00,23.6,7.7,30.48,North,360,0.0,0.0,50,0.00,,,0.00,Wunderground v.1.15,2013-01-27 21:40:00,
2013-01-27 16:50:00,22.9,4.2,30.48,South,184,0.0,0.0,44,0.00,,,0.00,Wunderground v.1.15,2013-01-27 21:50:00,
2013-01-27 16:55:00,22.4,6.1,30.49,South,184,0.0,1.0,49,0.00,,,0.00,Wunderground v.1.15,2013-01-27 21:55:00,
2013-01-27 17:00:00,21.8,6.4,30.49,South,184,0.0,0.0,51,0.00,,,0.00,Wunderground v.1.15,2013-01-27 22:00:00,
2013-01-27 17:10:00,21.1,4.0,30.49,NW,324,1.0,1.0,47,0.00,,,0.00,Wunderground v.1.15,2013-01-27 22:10:00,
2013-01-27 17:15:00,21.1,7.8,30.50,NW,324,0.0,1.0,56,0.00,,,0.00,Wunderground v.1.15,2013-01-27 22:15:00,
2013-01-27 17:20:00,21.0,8.1,30.50,NW,324,0.0,0.0,57,0.00,,,0.00,Wunderground v.1.15,2013-01-27 22:20:00,
2013-01-27 17:25:00,20.6,8.5,30.50,NW,325,0.0,0.0,59,0.00,,,0.00,Wunderground v.1.15,2013-01-27 22:25:00,
2013-01-27 17:35:00,19.9,5.1,30.49,NW,324,0.0,0.0,52,0.00,,,0.00,Wunderground v.1.15,2013-01-27 22:35:00,
2013-01-27 17:40:00,19.4,5.8,30.50,NW,324,0.0,1.0,55,0.00,,,0.00,Wunderground v.1.15,2013-01-27 22:40:00,
2013-01-27 17:45:00,19.1,6.3,30.49,NW,324,0.0,1.0,57,0.00,,,0.00,Wunderground v.1.15,2013-01-27 22:45:00,
2013-01-27 17:50:00,18.8,4.5,30.50,NW,324,0.0,0.0,53,0.00,,,0.00,Wunderground v.1.15,2013-01-27 22:50:00,
2013-01-27 18:00:00,18.1,4.6,30.50,NW,324,0.0,0.0,55,0.00,,,0.00,Wunderground v.1.15,2013-01-27 23:00:00,
2013-01-27 18:05:00,17.8,4.3,30.50,NW,324,0.0,1.0,55,0.00,,,0.00,Wunderground v.1.15,2013-01-27 23:05:00,
2013-01-27 18:15:00,17.2,4.9,30.50,NW,324,1.0,1.0,58,0.00,,,0.00,Wunderground v.1.15,2013-01-27 23:15:00,
2013-01-27 18:20:00,16.9,5.0,30.50,NW,324,1.0,1.0,59,0.00,,,0.00,Wunderground v.1.15,2013-01-27 23:20:00,
2013-01-27 18:25:00,16.7,5.2,30.50,NW,324,0.0,1.0,60,0.00,,,0.00,Wunderground v.1.15,2013-01-27 23:25:00,
2013-01-27 18:30:00,16.4,4.9,30.50,NW,324,0.0,0.0,60,0.00,,,0.00,Wunderground v.1.15,2013-01-27 23:30:00,
2013-01-27 18:40:00,15.6,5.2,30.51,NW,324,0.0,0.0,63,0.00,,,0.00,Wunderground v.1.15,2013-01-27 23:40:00,
2013-01-27 18:45:00,15.2,4.1,30.51,NW,324,0.0,0.0,61,0.00,,,0.00,Wunderground v.1.15,2013-01-27 23:45:00,
2013-01-27 18:50:00,15.1,4.1,30.51,NW,324,0.0,0.0,61,0.00,,,0.00,Wunderground v.1.15,2013-01-27 23:50:00,
2013-01-27 19:00:00,14.6,2.9,30.50,NW,324,0.0,0.0,59,0.00,,,0.00,Wunderground v.1.15,2013-01-28 00:00:00,
2013-01-27 19:05:00,14.3,2.9,30.50,NW,324,0.0,0.0,60,0.00,,,0.00,Wunderground v.1.15,2013-01-28 00:05:00,
2013-01-27 19:15:00,13.8,3.5,30.50,NW,324,0.0,0.0,63,0.00,,,0.00,Wunderground v.1.15,2013-01-28 00:15:00,
2013-01-27 19:20:00,13.5,3.6,30.50,NW,324,0.0,0.0,64,0.00,,,0.00,Wunderground v.1.15,2013-01-28 00:20:00,
2013-01-27 19:25:00,13.1,2.2,30.51,NW,324,0.0,0.0,61,0.00,,,0.00,Wunderground v.1.15,2013-01-28 00:25:00,
2013-01-27 19:30:00,12.8,2.9,30.51,NW,324,0.0,0.0,64,0.00,,,0.00,Wunderground v.1.15,2013-01-28 00:30:00,
2013-01-27 19:40:00,12.4,3.2,30.52,NW,325,0.0,0.0,66,0.00,,,0.00,Wunderground v.1.15,2013-01-28 00:40:00,
2013-01-27 19:45:00,12.1,3.2,30.51,NW,324,0.0,0.0,67,0.00,,,0.00,Wunderground v.1.15,2013-01-28 00:45:00,
2013-01-27 19:50:00,11.9,2.7,30.51,NW,324,0.0,0.0,66,0.00,,,0.00,Wunderground v.1.15,2013-01-28 00:50:00,
2013-01-27 20:00:00,11.2,2.7,30.50,NW,324,0.0,0.0,68,0.00,,,0.00,Wunderground v.1.15,2013-01-28 01:00:00,
2013-01-27 20:05:00,10.9,2.4,30.50,NW,324,0.0,0.0,68,0.00,,,0.00,Wunderground v.1.15,2013-01-28 01:05:00,
2013-01-27 20:15:00,10.5,2.3,30.49,NW,324,0.0,0.0,69,0.00,,,0.00,Wunderground v.1.15,2013-01-28 01:15:00,
2013-01-27 20:20:00,10.4,2.9,30.50,NW,324,0.0,0.0,71,0.00,,,0.00,Wunderground v.1.15,2013-01-28 01:20:00,
2013-01-27 20:25:00,10.2,2.7,30.50,NW,325,0.0,0.0,71,0.00,,,0.00,Wunderground v.1.15,2013-01-28 01:25:00,
2013-01-27 20:35:00,10.0,2.8,30.49,NW,324,0.0,0.0,72,0.00,,,0.00,Wunderground v.1.15,2013-01-28 01:35:00,
2013-01-27 20:40:00,9.9,3.0,30.50,NW,324,0.0,0.0,73,0.00,,,0.00,Wunderground v.1.15,2013-01-28 01:40:00,
2013-01-27 20:45:00,9.7,2.5,30.50,NW,324,0.0,0.0,72,0.00,,,0.00,Wunderground v.1.15,2013-01-28 01:45:00,
2013-01-27 20:55:00,9.3,2.1,30.50,NW,324,0.0,0.0,72,0.00,,,0.00,Wunderground v.1.15,2013-01-28 01:55:00,
2013-01-27 21:00:00,9.0,2.1,30.50,NW,324,0.0,0.0,73,0.00,,,0.00,Wunderground v.1.15,2013-01-28 02:00:00,
2013-01-27 21:05:00,9.0,2.4,30.51,NW,324,0.0,0.0,74,0.00,,,0.00,Wunderground v.1.15,2013-01-28 02:05:00,
2013-01-27 21:15:00,8.6,2.0,30.50,NW,324,0.0,0.0,74,0.00,,,0.00,Wunderground v.1.15,2013-01-28 02:15:00,
2013-01-27 21:20:00,8.4,2.1,30.50,NW,325,0.0,0.0,75,0.00,,,0.00,Wunderground v.1.15,2013-01-28 02:20:00,
2013-01-27 21:25:00,8.3,2.0,30.50,NW,325,0.0,0.0,75,0.00,,,0.00,Wunderground v.1.15,2013-01-28 02:25:00,
2013-01-27 21:30:00,8.1,1.8,30.50,NW,324,0.0,0.0,75,0.00,,,0.00,Wunderground v.1.15,2013-01-28 02:30:00,
2013-01-27 21:40:00,7.7,1.7,30.50,NW,324,0.0,0.0,76,0.00,,,0.00,Wunderground v.1.15,2013-01-28 02:40:00,
2013-01-27 21:45:00,7.6,1.9,30.50,NW,324,0.0,0.0,77,0.00,,,0.00,Wunderground v.1.15,2013-01-28 02:45:00,
2013-01-27 21:50:00,7.6,1.9,30.50,NW,324,0.0,0.0,77,0.00,,,0.00,Wunderground v.1.15,2013-01-28 02:50:00,
2013-01-27 22:00:00,7.2,1.5,30.50,NW,324,0.0,0.0,77,0.00,,,0.00,Wunderground v.1.15,2013-01-28 03:00:00,
2013-01-27 22:05:00,7.2,1.5,30.51,NW,324,0.0,0.0,77,0.00,,,0.00,Wunderground v.1.15,2013-01-28 03:05:00,
2013-01-27 22:10:00,7.0,1.6,30.51,NW,325,0.0,0.0,78,0.00,,,0.00,Wunderground v.1.15,2013-01-28 03:10:00,
2013-01-27 22:20:00,6.7,1.3,30.51,NW,324,0.0,0.0,78,0.00,,,0.00,Wunderground v.1.15,2013-01-28 03:20:00,
2013-01-27 22:25:00,6.7,1.3,30.51,NW,324,0.0,0.0,78,0.00,,,0.00,Wunderground v.1.15,2013-01-28 03:25:00,
2013-01-27 22:35:00,6.3,1.2,30.51,NW,324,0.0,0.0,79,0.00,,,0.00,Wunderground v.1.15,2013-01-28 03:35:00,
2013-01-27 22:40:00,6.1,1.0,30.52,NW,324,0.0,0.0,79,0.00,,,0.00,Wunderground v.1.15,2013-01-28 03:40:00,
2013-01-27 22:45:00,6.0,0.9,30.52,NW,324,0.0,0.0,79,0.00,,,0.00,Wunderground v.1.15,2013-01-28 03:45:00,
2013-01-27 22:50:00,5.8,1.0,30.52,NW,324,0.0,0.0,80,0.00,,,0.00,Wunderground v.1.15,2013-01-28 03:50:00,
2013-01-27 22:55:00,5.8,1.0,30.53,NW,325,0.0,0.0,80,0.00,,,0.00,Wunderground v.1.15,2013-01-28 03:55:00,
2013-01-27 23:05:00,5.6,0.8,30.52,NW,324,0.0,0.0,80,0.00,,,0.00,Wunderground v.1.15,2013-01-28 04:05:00,
2013-01-27 23:10:00,5.6,1.0,30.52,NW,324,0.0,0.0,81,0.00,,,0.00,Wunderground v.1.15,2013-01-28 04:10:00,
2013-01-27 23:20:00,5.4,0.8,30.51,NW,325,0.0,0.0,81,0.00,,,0.00,Wunderground v.1.15,2013-01-28 04:20:00,
2013-01-27 23:25:00,5.2,0.6,30.50,NW,324,0.0,0.0,81,0.00,,,0.00,Wunderground v.1.15,2013-01-28 04:25:00,
2013-01-27 23:30:00,5.2,0.6,30.51,NW,325,0.0,0.0,81,0.00,,,0.00,Wunderground v.1.15,2013-01-28 04:30:00,
2013-01-27 23:35:00,5.2,0.6,30.51,NW,324,0.0,0.0,81,0.00,,,0.00,Wunderground v.1.15,2013-01-28 04:35:00,
2013-01-27 23:45:00,5.0,0.7,30.51,NW,325,0.0,0.0,82,0.00,,,0.00,Wunderground v.1.15,2013-01-28 04:45:00,
2013-01-27 23:50:00,5.0,0.7,30.50,NW,324,0.0,0.0,82,0.00,,,0.00,Wunderground v.1.15,2013-01-28 04:50:00,
2013-01-27 23:55:00,4.8,0.5,30.50,NW,324,0.0,0.0,82,0.00,,,0.00,Wunderground v.1.15,2013-01-28 04:55:00,